sensor_id;sensor_type;location;lat;lon;timestamp;temperature;humidity
5520;DHT22;2782;52.362;10.012;2023-08-01T00:00:45;21.10;90.00
5520;DHT22;2782;52.362;10.012;2023-08-01T00:01:47;21.20;90.10
5520;DHT22;2782;52.362;10.012;2023-08-01T00:02:47;21.10;90.00
5520;DHT22;2782;52.362;10.012;2023-08-01T00:03:50;21.10;90.00
5520;DHT22;2782;52.362;10.012;2023-08-01T00:04:51;21.20;90.10
5520;DHT22;2782;52.362;10.012;2023-08-01T00:05:53;21.10;90.00
5520;DHT22;2782;52.362;10.012;2023-08-01T00:06:55;21.20;90.10
5520;DHT22;2782;52.362;10.012;2023-08-01T00:07:57;21.10;90.00
5520;DHT22;2782;52.362;10.012;2023-08-01T00:08:57;21.10;90.00
5520;DHT22;2782;52.362;10.012;2023-08-01T00:09:59;21.10;90.00
5520;DHT22;2782;52.362;10.012;2023-08-01T00:11:00;21.10;90.00
5520;DHT22;2782;52.362;10.012;2023-08-01T00:12:01;21.10;90.00
5520;DHT22;2782;52.362;10.012;2023-08-01T00:13:02;21.10;90.00
5520;DHT22;2782;52.362;10.012;2023-08-01T00:14:03;21.10;90.00
5520;DHT22;2782;52.362;10.012;2023-08-01T00:15:05;21.10;90.00
5520;DHT22;2782;52.362;10.012;2023-08-01T00:16:06;21.10;90.00
5520;DHT22;2782;52.362;10.012;2023-08-01T00:17:08;21.10;90.00
5520;DHT22;2782;52.362;10.012;2023-08-01T00:18:09;21.10;90.00
5520;DHT22;2782;52.362;10.012;2023-08-01T00:19:12;21.10;90.00
5520;DHT22;2782;52.362;10.012;2023-08-01T00:20:12;21.10;90.00
5520;DHT22;2782;52.362;10.012;2023-08-01T00:21:14;21.10;90.00
5520;DHT22;2782;52.362;10.012;2023-08-01T00:22:15;21.10;90.00
5520;DHT22;2782;52.362;10.012;2023-08-01T00:23:16;21.10;90.00
5520;DHT22;2782;52.362;10.012;2023-08-01T00:24:17;21.10;90.00
5520;DHT22;2782;52.362;10.012;2023-08-01T00:25:19;21.10;90.00
5520;DHT22;2782;52.362;10.012;2023-08-01T00:26:20;21.10;90.00
5520;DHT22;2782;52.362;10.012;2023-08-01T00:27:21;21.20;90.00
5520;DHT22;2782;52.362;10.012;2023-08-01T00:28:22;21.10;90.00
5520;DHT22;2782;52.362;10.012;2023-08-01T00:29:24;21.10;90.00
5520;DHT22;2782;52.362;10.012;2023-08-01T00:30:24;21.10;90.00
5520;DHT22;2782;52.362;10.012;2023-08-01T00:31:26;21.10;90.00
5520;DHT22;2782;52.362;10.012;2023-08-01T00:32:27;21.10;90.00
5520;DHT22;2782;52.362;10.012;2023-08-01T00:33:28;21.10;90.00
5520;DHT22;2782;52.362;10.012;2023-08-01T00:34:30;21.10;90.00
5520;DHT22;2782;52.362;10.012;2023-08-01T00:35:32;21.10;90.00
5520;DHT22;2782;52.362;10.012;2023-08-01T00:36:33;21.10;90.00
5520;DHT22;2782;52.362;10.012;2023-08-01T00:37:34;21.10;90.00
5520;DHT22;2782;52.362;10.012;2023-08-01T00:38:36;21.10;90.00
5520;DHT22;2782;52.362;10.012;2023-08-01T00:39:37;21.10;90.00
5520;DHT22;2782;52.362;10.012;2023-08-01T00:40:38;21.10;89.90
5520;DHT22;2782;52.362;10.012;2023-08-01T00:41:40;21.10;89.90
5520;DHT22;2782;52.362;10.012;2023-08-01T00:42:40;21.10;89.90
5520;DHT22;2782;52.362;10.012;2023-08-01T00:43:42;21.10;89.90
5520;DHT22;2782;52.362;10.012;2023-08-01T00:44:43;21.10;90.00
5520;DHT22;2782;52.362;10.012;2023-08-01T00:45:45;21.10;90.00
5520;DHT22;2782;52.362;10.012;2023-08-01T00:46:46;21.10;90.00
5520;DHT22;2782;52.362;10.012;2023-08-01T00:47:47;21.10;89.90
5520;DHT22;2782;52.362;10.012;2023-08-01T00:48:48;21.10;89.90
5520;DHT22;2782;52.362;10.012;2023-08-01T00:49:51;21.10;90.00
5520;DHT22;2782;52.362;10.012;2023-08-01T00:50:53;21.10;90.00
5520;DHT22;2782;52.362;10.012;2023-08-01T00:51:56;21.10;90.00
5520;DHT22;2782;52.362;10.012;2023-08-01T00:52:57;21.10;90.00
5520;DHT22;2782;52.362;10.012;2023-08-01T00:53:59;21.10;90.00
5520;DHT22;2782;52.362;10.012;2023-08-01T00:55:00;21.10;90.00
5520;DHT22;2782;52.362;10.012;2023-08-01T00:56:03;21.10;90.00
5520;DHT22;2782;52.362;10.012;2023-08-01T00:57:05;21.10;90.00
5520;DHT22;2782;52.362;10.012;2023-08-01T00:58:08;21.10;90.00
5520;DHT22;2782;52.362;10.012;2023-08-01T00:59:09;21.10;90.00
5520;DHT22;2782;52.362;10.012;2023-08-01T01:00:12;21.10;90.00
5520;DHT22;2782;52.362;10.012;2023-08-01T01:01:13;21.10;90.00
5520;DHT22;2782;52.362;10.012;2023-08-01T01:02:14;21.10;90.00
5520;DHT22;2782;52.362;10.012;2023-08-01T01:03:16;21.10;90.00
5520;DHT22;2782;52.362;10.012;2023-08-01T01:04:17;21.10;90.00
5520;DHT22;2782;52.362;10.012;2023-08-01T01:05:21;21.10;90.00
5520;DHT22;2782;52.362;10.012;2023-08-01T01:06:24;21.10;90.00
5520;DHT22;2782;52.362;10.012;2023-08-01T01:07:27;21.10;90.00
5520;DHT22;2782;52.362;10.012;2023-08-01T01:08:28;21.10;90.00
5520;DHT22;2782;52.362;10.012;2023-08-01T01:09:30;21.10;90.00
5520;DHT22;2782;52.362;10.012;2023-08-01T01:10:32;21.10;90.00
5520;DHT22;2782;52.362;10.012;2023-08-01T01:11:34;21.10;90.00
5520;DHT22;2782;52.362;10.012;2023-08-01T01:12:34;21.10;90.10
5520;DHT22;2782;52.362;10.012;2023-08-01T01:13:35;21.10;90.00
5520;DHT22;2782;52.362;10.012;2023-08-01T01:14:37;21.10;90.00
5520;DHT22;2782;52.362;10.012;2023-08-01T01:15:38;21.10;90.00
5520;DHT22;2782;52.362;10.012;2023-08-01T01:16:39;21.10;90.00
5520;DHT22;2782;52.362;10.012;2023-08-01T01:17:40;21.10;90.00
5520;DHT22;2782;52.362;10.012;2023-08-01T01:18:41;21.10;90.00
5520;DHT22;2782;52.362;10.012;2023-08-01T01:19:42;21.10;90.00
5520;DHT22;2782;52.362;10.012;2023-08-01T01:20:45;21.10;90.00
5520;DHT22;2782;52.362;10.012;2023-08-01T01:21:46;21.10;90.00
5520;DHT22;2782;52.362;10.012;2023-08-01T01:22:47;21.10;90.00
5520;DHT22;2782;52.362;10.012;2023-08-01T01:23:51;21.10;90.00
5520;DHT22;2782;52.362;10.012;2023-08-01T01:24:53;21.10;90.00
5520;DHT22;2782;52.362;10.012;2023-08-01T01:25:57;21.10;90.00
5520;DHT22;2782;52.362;10.012;2023-08-01T01:26:59;21.10;90.00
5520;DHT22;2782;52.362;10.012;2023-08-01T01:28:03;21.10;90.00
5520;DHT22;2782;52.362;10.012;2023-08-01T01:29:04;21.10;90.00
5520;DHT22;2782;52.362;10.012;2023-08-01T01:30:09;21.10;90.00
5520;DHT22;2782;52.362;10.012;2023-08-01T01:31:10;21.10;90.00
5520;DHT22;2782;52.362;10.012;2023-08-01T01:32:11;21.10;90.00
5520;DHT22;2782;52.362;10.012;2023-08-01T01:33:14;21.10;90.00
5520;DHT22;2782;52.362;10.012;2023-08-01T01:34:16;21.10;90.00
5520;DHT22;2782;52.362;10.012;2023-08-01T01:35:17;21.10;90.00
5520;DHT22;2782;52.362;10.012;2023-08-01T01:36:20;21.10;90.00
5520;DHT22;2782;52.362;10.012;2023-08-01T01:37:21;21.10;90.00
5520;DHT22;2782;52.362;10.012;2023-08-01T01:38:22;21.10;90.30
5520;DHT22;2782;52.362;10.012;2023-08-01T01:39:23;21.10;90.00
5520;DHT22;2782;52.362;10.012;2023-08-01T01:40:24;21.10;90.00
5520;DHT22;2782;52.362;10.012;2023-08-01T01:41:26;21.10;90.00
5520;DHT22;2782;52.362;10.012;2023-08-01T01:42:27;21.10;90.00
5520;DHT22;2782;52.362;10.012;2023-08-01T01:43:28;21.10;90.00
5520;DHT22;2782;52.362;10.012;2023-08-01T01:44:29;21.10;90.00
5520;DHT22;2782;52.362;10.012;2023-08-01T01:45:31;21.10;90.00
5520;DHT22;2782;52.362;10.012;2023-08-01T01:46:31;21.10;90.00
5520;DHT22;2782;52.362;10.012;2023-08-01T01:47:33;21.10;90.00
5520;DHT22;2782;52.362;10.012;2023-08-01T01:48:34;21.10;90.00
5520;DHT22;2782;52.362;10.012;2023-08-01T01:49:34;21.10;90.00
5520;DHT22;2782;52.362;10.012;2023-08-01T01:50:36;21.10;90.00
5520;DHT22;2782;52.362;10.012;2023-08-01T01:51:38;21.10;90.00
5520;DHT22;2782;52.362;10.012;2023-08-01T01:52:40;21.10;90.00
5520;DHT22;2782;52.362;10.012;2023-08-01T01:53:41;21.10;90.00
5520;DHT22;2782;52.362;10.012;2023-08-01T01:54:43;21.10;90.00
5520;DHT22;2782;52.362;10.012;2023-08-01T01:55:44;21.10;90.00
5520;DHT22;2782;52.362;10.012;2023-08-01T01:56:45;21.10;90.00
5520;DHT22;2782;52.362;10.012;2023-08-01T01:57:47;21.10;90.00
5520;DHT22;2782;52.362;10.012;2023-08-01T01:58:48;21.10;90.00
5520;DHT22;2782;52.362;10.012;2023-08-01T01:59:49;21.10;90.00
5520;DHT22;2782;52.362;10.012;2023-08-01T02:00:50;21.10;90.00
5520;DHT22;2782;52.362;10.012;2023-08-01T02:01:51;21.10;90.00
5520;DHT22;2782;52.362;10.012;2023-08-01T02:02:52;21.10;90.00
5520;DHT22;2782;52.362;10.012;2023-08-01T02:03:53;21.10;90.00
5520;DHT22;2782;52.362;10.012;2023-08-01T02:04:55;21.10;90.00
5520;DHT22;2782;52.362;10.012;2023-08-01T02:05:55;21.10;90.00
5520;DHT22;2782;52.362;10.012;2023-08-01T02:06:58;21.10;90.00
5520;DHT22;2782;52.362;10.012;2023-08-01T02:07:59;21.10;90.00
5520;DHT22;2782;52.362;10.012;2023-08-01T02:09:01;21.10;90.00
5520;DHT22;2782;52.362;10.012;2023-08-01T02:10:03;21.10;90.00
5520;DHT22;2782;52.362;10.012;2023-08-01T02:11:05;21.10;90.00
5520;DHT22;2782;52.362;10.012;2023-08-01T02:12:06;21.10;90.00
5520;DHT22;2782;52.362;10.012;2023-08-01T02:13:10;21.10;90.00
5520;DHT22;2782;52.362;10.012;2023-08-01T02:14:10;21.10;90.00
5520;DHT22;2782;52.362;10.012;2023-08-01T02:15:12;21.10;90.00
5520;DHT22;2782;52.362;10.012;2023-08-01T02:16:13;21.10;90.00
5520;DHT22;2782;52.362;10.012;2023-08-01T02:17:14;21.10;90.00
5520;DHT22;2782;52.362;10.012;2023-08-01T02:18:15;21.10;90.00
5520;DHT22;2782;52.362;10.012;2023-08-01T02:19:17;21.10;90.00
5520;DHT22;2782;52.362;10.012;2023-08-01T02:20:17;21.10;90.00
5520;DHT22;2782;52.362;10.012;2023-08-01T02:21:19;21.10;90.00
5520;DHT22;2782;52.362;10.012;2023-08-01T02:22:21;21.10;90.00
5520;DHT22;2782;52.362;10.012;2023-08-01T02:23:23;21.10;90.00
5520;DHT22;2782;52.362;10.012;2023-08-01T02:24:23;21.10;90.00
5520;DHT22;2782;52.362;10.012;2023-08-01T02:25:24;21.10;90.00
5520;DHT22;2782;52.362;10.012;2023-08-01T02:26:26;21.10;90.00
5520;DHT22;2782;52.362;10.012;2023-08-01T02:27:26;21.10;90.00
5520;DHT22;2782;52.362;10.012;2023-08-01T02:28:28;21.10;90.00
5520;DHT22;2782;52.362;10.012;2023-08-01T02:29:28;21.10;90.00
5520;DHT22;2782;52.362;10.012;2023-08-01T02:30:30;21.10;90.00
5520;DHT22;2782;52.362;10.012;2023-08-01T02:31:31;21.10;90.00
5520;DHT22;2782;52.362;10.012;2023-08-01T02:32:32;21.10;90.00
5520;DHT22;2782;52.362;10.012;2023-08-01T02:33:33;21.10;90.00
5520;DHT22;2782;52.362;10.012;2023-08-01T02:34:35;21.10;89.90
5520;DHT22;2782;52.362;10.012;2023-08-01T02:35:37;21.10;89.90
5520;DHT22;2782;52.362;10.012;2023-08-01T02:36:39;21.10;89.90
5520;DHT22;2782;52.362;10.012;2023-08-01T02:37:42;21.10;90.00
5520;DHT22;2782;52.362;10.012;2023-08-01T02:38:44;21.10;90.00
5520;DHT22;2782;52.362;10.012;2023-08-01T02:39:44;21.10;89.90
5520;DHT22;2782;52.362;10.012;2023-08-01T02:40:46;21.10;89.90
5520;DHT22;2782;52.362;10.012;2023-08-01T02:41:47;21.10;89.90
5520;DHT22;2782;52.362;10.012;2023-08-01T02:42:48;21.10;89.90
5520;DHT22;2782;52.362;10.012;2023-08-01T02:43:49;21.10;90.00
5520;DHT22;2782;52.362;10.012;2023-08-01T02:44:51;21.10;89.90
5520;DHT22;2782;52.362;10.012;2023-08-01T02:45:51;21.10;89.90
5520;DHT22;2782;52.362;10.012;2023-08-01T02:46:53;21.10;89.90
5520;DHT22;2782;52.362;10.012;2023-08-01T02:47:54;21.10;89.90
5520;DHT22;2782;52.362;10.012;2023-08-01T02:48:54;21.10;89.90
5520;DHT22;2782;52.362;10.012;2023-08-01T02:49:56;21.10;89.90
5520;DHT22;2782;52.362;10.012;2023-08-01T02:50:56;21.10;89.80
5520;DHT22;2782;52.362;10.012;2023-08-01T02:51:58;21.10;89.90
5520;DHT22;2782;52.362;10.012;2023-08-01T02:53:00;21.10;89.90
5520;DHT22;2782;52.362;10.012;2023-08-01T02:54:02;21.10;89.80
5520;DHT22;2782;52.362;10.012;2023-08-01T02:55:03;21.10;89.90
5520;DHT22;2782;52.362;10.012;2023-08-01T02:56:04;21.10;89.90
5520;DHT22;2782;52.362;10.012;2023-08-01T02:57:07;21.10;89.90
5520;DHT22;2782;52.362;10.012;2023-08-01T02:58:08;21.10;90.00
5520;DHT22;2782;52.362;10.012;2023-08-01T02:59:10;21.10;89.90
5520;DHT22;2782;52.362;10.012;2023-08-01T03:00:11;21.10;90.00
5520;DHT22;2782;52.362;10.012;2023-08-01T03:01:12;21.10;90.00
5520;DHT22;2782;52.362;10.012;2023-08-01T03:02:14;21.10;90.00
5520;DHT22;2782;52.362;10.012;2023-08-01T03:03:14;21.10;90.00
5520;DHT22;2782;52.362;10.012;2023-08-01T03:04:16;21.10;90.00
5520;DHT22;2782;52.362;10.012;2023-08-01T03:05:17;21.10;90.00
5520;DHT22;2782;52.362;10.012;2023-08-01T03:06:19;21.10;90.00
5520;DHT22;2782;52.362;10.012;2023-08-01T03:07:20;21.10;90.00
5520;DHT22;2782;52.362;10.012;2023-08-01T03:08:22;21.10;90.00
5520;DHT22;2782;52.362;10.012;2023-08-01T03:09:23;21.10;90.00
5520;DHT22;2782;52.362;10.012;2023-08-01T03:10:24;21.00;89.80
5520;DHT22;2782;52.362;10.012;2023-08-01T03:11:26;21.10;89.90
5520;DHT22;2782;52.362;10.012;2023-08-01T03:12:27;21.10;89.90
5520;DHT22;2782;52.362;10.012;2023-08-01T03:13:28;21.10;89.90
5520;DHT22;2782;52.362;10.012;2023-08-01T03:14:30;21.00;89.80
5520;DHT22;2782;52.362;10.012;2023-08-01T03:15:30;21.00;89.80
5520;DHT22;2782;52.362;10.012;2023-08-01T03:16:32;21.00;89.80
5520;DHT22;2782;52.362;10.012;2023-08-01T03:17:33;21.10;89.90
5520;DHT22;2782;52.362;10.012;2023-08-01T03:18:35;21.00;89.80
5520;DHT22;2782;52.362;10.012;2023-08-01T03:19:35;21.10;89.90
5520;DHT22;2782;52.362;10.012;2023-08-01T03:20:36;21.10;89.80
5520;DHT22;2782;52.362;10.012;2023-08-01T03:21:38;21.00;89.70
5520;DHT22;2782;52.362;10.012;2023-08-01T03:22:39;21.10;89.80
5520;DHT22;2782;52.362;10.012;2023-08-01T03:23:42;21.10;89.80
5520;DHT22;2782;52.362;10.012;2023-08-01T03:24:43;21.00;89.70
5520;DHT22;2782;52.362;10.012;2023-08-01T03:25:44;21.00;89.80
5520;DHT22;2782;52.362;10.012;2023-08-01T03:26:45;21.00;89.80
5520;DHT22;2782;52.362;10.012;2023-08-01T03:27:46;21.00;89.70
5520;DHT22;2782;52.362;10.012;2023-08-01T03:28:47;21.00;90.10
5520;DHT22;2782;52.362;10.012;2023-08-01T03:29:49;21.00;89.70
5520;DHT22;2782;52.362;10.012;2023-08-01T03:30:50;21.00;89.70
5520;DHT22;2782;52.362;10.012;2023-08-01T03:31:51;21.00;89.70
5520;DHT22;2782;52.362;10.012;2023-08-01T03:32:52;21.10;89.80
5520;DHT22;2782;52.362;10.012;2023-08-01T03:33:53;21.00;89.70
5520;DHT22;2782;52.362;10.012;2023-08-01T03:34:54;21.00;89.60
5520;DHT22;2782;52.362;10.012;2023-08-01T03:35:55;21.00;89.70
5520;DHT22;2782;52.362;10.012;2023-08-01T03:36:57;21.00;89.60
5520;DHT22;2782;52.362;10.012;2023-08-01T03:37:58;21.10;89.70
5520;DHT22;2782;52.362;10.012;2023-08-01T03:39:01;21.00;89.60
5520;DHT22;2782;52.362;10.012;2023-08-01T03:40:04;21.00;89.60
5520;DHT22;2782;52.362;10.012;2023-08-01T03:41:05;21.00;89.60
5520;DHT22;2782;52.362;10.012;2023-08-01T03:42:07;21.00;89.60
5520;DHT22;2782;52.362;10.012;2023-08-01T03:43:08;21.00;89.60
5520;DHT22;2782;52.362;10.012;2023-08-01T03:44:10;21.00;89.60
5520;DHT22;2782;52.362;10.012;2023-08-01T03:45:11;21.00;89.60
5520;DHT22;2782;52.362;10.012;2023-08-01T03:46:12;21.10;89.70
5520;DHT22;2782;52.362;10.012;2023-08-01T03:47:14;21.00;89.60
5520;DHT22;2782;52.362;10.012;2023-08-01T03:48:15;21.00;89.60
5520;DHT22;2782;52.362;10.012;2023-08-01T03:49:16;21.00;89.50
5520;DHT22;2782;52.362;10.012;2023-08-01T03:50:18;21.00;90.10
5520;DHT22;2782;52.362;10.012;2023-08-01T03:51:20;21.00;89.60
5520;DHT22;2782;52.362;10.012;2023-08-01T03:52:21;21.00;89.60
5520;DHT22;2782;52.362;10.012;2023-08-01T03:53:23;21.00;89.60
5520;DHT22;2782;52.362;10.012;2023-08-01T03:54:25;21.00;89.60
5520;DHT22;2782;52.362;10.012;2023-08-01T03:55:26;21.00;89.60
5520;DHT22;2782;52.362;10.012;2023-08-01T03:56:27;21.00;89.60
5520;DHT22;2782;52.362;10.012;2023-08-01T03:57:29;21.00;89.60
5520;DHT22;2782;52.362;10.012;2023-08-01T03:58:30;21.00;89.60
5520;DHT22;2782;52.362;10.012;2023-08-01T03:59:31;21.00;89.60
5520;DHT22;2782;52.362;10.012;2023-08-01T04:00:32;21.00;89.60
5520;DHT22;2782;52.362;10.012;2023-08-01T04:01:34;21.00;89.60
5520;DHT22;2782;52.362;10.012;2023-08-01T04:02:35;21.00;89.60
5520;DHT22;2782;52.362;10.012;2023-08-01T04:03:35;21.00;89.70
5520;DHT22;2782;52.362;10.012;2023-08-01T04:04:37;21.00;89.70
5520;DHT22;2782;52.362;10.012;2023-08-01T04:05:38;21.00;89.70
5520;DHT22;2782;52.362;10.012;2023-08-01T04:06:39;21.00;89.80
5520;DHT22;2782;52.362;10.012;2023-08-01T04:07:40;21.00;89.70
5520;DHT22;2782;52.362;10.012;2023-08-01T04:08:42;21.00;89.70
5520;DHT22;2782;52.362;10.012;2023-08-01T04:09:44;21.00;89.70
5520;DHT22;2782;52.362;10.012;2023-08-01T04:10:46;21.00;89.70
5520;DHT22;2782;52.362;10.012;2023-08-01T04:11:47;21.00;89.70
5520;DHT22;2782;52.362;10.012;2023-08-01T04:12:49;21.00;89.70
5520;DHT22;2782;52.362;10.012;2023-08-01T04:13:49;21.00;89.70
5520;DHT22;2782;52.362;10.012;2023-08-01T04:14:50;21.10;89.80
5520;DHT22;2782;52.362;10.012;2023-08-01T04:15:52;21.00;89.70
5520;DHT22;2782;52.362;10.012;2023-08-01T04:16:54;21.00;89.60
5520;DHT22;2782;52.362;10.012;2023-08-01T04:17:55;21.10;89.70
5520;DHT22;2782;52.362;10.012;2023-08-01T04:18:56;21.00;89.60
5520;DHT22;2782;52.362;10.012;2023-08-01T04:19:57;21.00;89.70
5520;DHT22;2782;52.362;10.012;2023-08-01T04:20:58;21.00;89.60
5520;DHT22;2782;52.362;10.012;2023-08-01T04:22:00;21.00;89.60
5520;DHT22;2782;52.362;10.012;2023-08-01T04:23:00;21.00;89.60
5520;DHT22;2782;52.362;10.012;2023-08-01T04:24:02;21.00;89.60
5520;DHT22;2782;52.362;10.012;2023-08-01T04:25:05;21.00;89.60
5520;DHT22;2782;52.362;10.012;2023-08-01T04:26:07;21.00;89.60
5520;DHT22;2782;52.362;10.012;2023-08-01T04:27:08;21.00;89.60
5520;DHT22;2782;52.362;10.012;2023-08-01T04:28:09;21.00;89.60
5520;DHT22;2782;52.362;10.012;2023-08-01T04:29:10;21.00;89.60
5520;DHT22;2782;52.362;10.012;2023-08-01T04:30:12;21.00;89.60
5520;DHT22;2782;52.362;10.012;2023-08-01T04:31:14;21.00;89.60
5520;DHT22;2782;52.362;10.012;2023-08-01T04:32:15;21.00;89.60
5520;DHT22;2782;52.362;10.012;2023-08-01T04:33:17;21.00;89.60
5520;DHT22;2782;52.362;10.012;2023-08-01T04:34:18;21.00;89.50
5520;DHT22;2782;52.362;10.012;2023-08-01T04:35:19;21.00;89.50
5520;DHT22;2782;52.362;10.012;2023-08-01T04:36:21;21.00;89.60
5520;DHT22;2782;52.362;10.012;2023-08-01T04:37:22;21.00;89.50
5520;DHT22;2782;52.362;10.012;2023-08-01T04:38:24;21.00;89.50
5520;DHT22;2782;52.362;10.012;2023-08-01T04:39:24;21.00;89.50
5520;DHT22;2782;52.362;10.012;2023-08-01T04:40:27;21.00;89.50
5520;DHT22;2782;52.362;10.012;2023-08-01T04:41:28;21.00;89.50
5520;DHT22;2782;52.362;10.012;2023-08-01T04:42:29;21.00;89.50
5520;DHT22;2782;52.362;10.012;2023-08-01T04:43:30;21.00;89.50
5520;DHT22;2782;52.362;10.012;2023-08-01T04:44:31;21.00;89.50
5520;DHT22;2782;52.362;10.012;2023-08-01T04:45:33;21.00;89.50
5520;DHT22;2782;52.362;10.012;2023-08-01T04:46:33;21.00;89.50
5520;DHT22;2782;52.362;10.012;2023-08-01T04:47:35;21.00;89.40
5520;DHT22;2782;52.362;10.012;2023-08-01T04:48:36;21.00;89.40
5520;DHT22;2782;52.362;10.012;2023-08-01T04:49:36;21.00;89.40
5520;DHT22;2782;52.362;10.012;2023-08-01T04:50:38;21.00;89.40
5520;DHT22;2782;52.362;10.012;2023-08-01T04:51:39;21.00;89.40
5520;DHT22;2782;52.362;10.012;2023-08-01T04:52:40;21.00;89.40
5520;DHT22;2782;52.362;10.012;2023-08-01T04:53:41;21.00;89.40
5520;DHT22;2782;52.362;10.012;2023-08-01T04:54:43;21.00;89.40
5520;DHT22;2782;52.362;10.012;2023-08-01T04:55:45;21.00;89.40
5520;DHT22;2782;52.362;10.012;2023-08-01T04:56:49;21.00;89.40
5520;DHT22;2782;52.362;10.012;2023-08-01T04:57:50;21.00;89.40
5520;DHT22;2782;52.362;10.012;2023-08-01T04:58:51;21.00;89.40
5520;DHT22;2782;52.362;10.012;2023-08-01T04:59:52;21.00;89.40
5520;DHT22;2782;52.362;10.012;2023-08-01T05:00:54;21.00;89.40
5520;DHT22;2782;52.362;10.012;2023-08-01T05:01:54;21.00;89.50
5520;DHT22;2782;52.362;10.012;2023-08-01T05:02:55;21.00;89.40
5520;DHT22;2782;52.362;10.012;2023-08-01T05:03:57;21.00;89.40
5520;DHT22;2782;52.362;10.012;2023-08-01T05:04:58;21.00;89.50
5520;DHT22;2782;52.362;10.012;2023-08-01T05:06:00;21.00;89.50
5520;DHT22;2782;52.362;10.012;2023-08-01T05:07:00;21.00;89.50
5520;DHT22;2782;52.362;10.012;2023-08-01T05:08:02;21.00;89.50
5520;DHT22;2782;52.362;10.012;2023-08-01T05:09:03;21.00;89.50
5520;DHT22;2782;52.362;10.012;2023-08-01T05:10:05;21.00;89.50
5520;DHT22;2782;52.362;10.012;2023-08-01T05:11:07;21.00;89.50
5520;DHT22;2782;52.362;10.012;2023-08-01T05:12:09;21.00;89.50
5520;DHT22;2782;52.362;10.012;2023-08-01T05:13:10;21.00;89.50
5520;DHT22;2782;52.362;10.012;2023-08-01T05:14:11;21.00;89.50
5520;DHT22;2782;52.362;10.012;2023-08-01T05:15:12;21.00;89.50
5520;DHT22;2782;52.362;10.012;2023-08-01T05:16:14;21.00;89.50
5520;DHT22;2782;52.362;10.012;2023-08-01T05:17:15;21.00;89.40
5520;DHT22;2782;52.362;10.012;2023-08-01T05:18:17;21.00;89.40
5520;DHT22;2782;52.362;10.012;2023-08-01T05:19:19;21.00;89.40
5520;DHT22;2782;52.362;10.012;2023-08-01T05:20:21;21.00;89.50
5520;DHT22;2782;52.362;10.012;2023-08-01T05:21:21;21.00;89.50
5520;DHT22;2782;52.362;10.012;2023-08-01T05:22:23;21.00;89.40
5520;DHT22;2782;52.362;10.012;2023-08-01T05:23:24;21.00;89.50
5520;DHT22;2782;52.362;10.012;2023-08-01T05:24:25;21.00;89.50
5520;DHT22;2782;52.362;10.012;2023-08-01T05:25:26;21.00;89.40
5520;DHT22;2782;52.362;10.012;2023-08-01T05:26:29;21.00;89.40
5520;DHT22;2782;52.362;10.012;2023-08-01T05:27:30;21.00;89.50
5520;DHT22;2782;52.362;10.012;2023-08-01T05:28:31;21.00;89.40
5520;DHT22;2782;52.362;10.012;2023-08-01T05:29:32;21.00;89.50
5520;DHT22;2782;52.362;10.012;2023-08-01T05:30:34;21.00;89.40
5520;DHT22;2782;52.362;10.012;2023-08-01T05:31:34;21.00;89.40
5520;DHT22;2782;52.362;10.012;2023-08-01T05:32:36;21.00;89.40
5520;DHT22;2782;52.362;10.012;2023-08-01T05:33:37;21.00;89.40
5520;DHT22;2782;52.362;10.012;2023-08-01T05:34:40;21.00;89.50
5520;DHT22;2782;52.362;10.012;2023-08-01T05:35:40;21.00;89.40
5520;DHT22;2782;52.362;10.012;2023-08-01T05:36:42;21.00;89.40
5520;DHT22;2782;52.362;10.012;2023-08-01T05:37:43;21.00;89.50
5520;DHT22;2782;52.362;10.012;2023-08-01T05:38:45;21.00;89.40
5520;DHT22;2782;52.362;10.012;2023-08-01T05:39:45;21.00;89.40
5520;DHT22;2782;52.362;10.012;2023-08-01T05:40:47;21.00;89.40
5520;DHT22;2782;52.362;10.012;2023-08-01T05:41:49;21.00;89.40
5520;DHT22;2782;52.362;10.012;2023-08-01T05:42:51;21.00;89.40
5520;DHT22;2782;52.362;10.012;2023-08-01T05:43:52;21.00;89.30
5520;DHT22;2782;52.362;10.012;2023-08-01T05:44:54;21.00;89.30
5520;DHT22;2782;52.362;10.012;2023-08-01T05:45:55;21.00;89.40
5520;DHT22;2782;52.362;10.012;2023-08-01T05:46:56;21.00;89.40
5520;DHT22;2782;52.362;10.012;2023-08-01T05:47:57;21.00;89.30
5520;DHT22;2782;52.362;10.012;2023-08-01T05:48:59;21.00;89.30
5520;DHT22;2782;52.362;10.012;2023-08-01T05:49:59;21.00;89.40
5520;DHT22;2782;52.362;10.012;2023-08-01T05:51:01;21.00;89.30
5520;DHT22;2782;52.362;10.012;2023-08-01T05:52:02;21.00;89.30
5520;DHT22;2782;52.362;10.012;2023-08-01T05:53:04;21.00;89.30
5520;DHT22;2782;52.362;10.012;2023-08-01T05:54:05;21.00;89.30
5520;DHT22;2782;52.362;10.012;2023-08-01T05:55:07;21.00;89.30
5520;DHT22;2782;52.362;10.012;2023-08-01T05:56:08;21.00;89.30
5520;DHT22;2782;52.362;10.012;2023-08-01T05:57:11;21.00;89.30
5520;DHT22;2782;52.362;10.012;2023-08-01T05:58:11;21.00;89.30
5520;DHT22;2782;52.362;10.012;2023-08-01T05:59:13;21.00;89.30
5520;DHT22;2782;52.362;10.012;2023-08-01T06:00:15;21.00;89.30
5520;DHT22;2782;52.362;10.012;2023-08-01T06:01:16;21.00;89.40
5520;DHT22;2782;52.362;10.012;2023-08-01T06:02:17;21.00;89.40
5520;DHT22;2782;52.362;10.012;2023-08-01T06:03:18;21.00;89.40
5520;DHT22;2782;52.362;10.012;2023-08-01T06:04:20;21.00;89.40
5520;DHT22;2782;52.362;10.012;2023-08-01T06:05:21;21.00;89.30
5520;DHT22;2782;52.362;10.012;2023-08-01T06:06:22;21.00;89.40
5520;DHT22;2782;52.362;10.012;2023-08-01T06:07:23;21.00;89.40
5520;DHT22;2782;52.362;10.012;2023-08-01T06:08:25;21.00;89.40
5520;DHT22;2782;52.362;10.012;2023-08-01T06:09:26;21.00;89.30
5520;DHT22;2782;52.362;10.012;2023-08-01T06:10:28;21.00;89.40
5520;DHT22;2782;52.362;10.012;2023-08-01T06:11:30;21.00;89.40
5520;DHT22;2782;52.362;10.012;2023-08-01T06:12:36;21.00;89.40
5520;DHT22;2782;52.362;10.012;2023-08-01T06:13:37;21.00;89.40
5520;DHT22;2782;52.362;10.012;2023-08-01T06:14:39;21.00;89.40
5520;DHT22;2782;52.362;10.012;2023-08-01T06:15:39;21.00;89.50
5520;DHT22;2782;52.362;10.012;2023-08-01T06:16:40;21.00;89.50
5520;DHT22;2782;52.362;10.012;2023-08-01T06:17:42;21.00;89.40
5520;DHT22;2782;52.362;10.012;2023-08-01T06:18:42;21.00;89.50
5520;DHT22;2782;52.362;10.012;2023-08-01T06:19:44;21.00;89.50
5520;DHT22;2782;52.362;10.012;2023-08-01T06:20:45;21.00;89.50
5520;DHT22;2782;52.362;10.012;2023-08-01T06:21:46;21.00;89.40
5520;DHT22;2782;52.362;10.012;2023-08-01T06:22:47;21.00;89.40
5520;DHT22;2782;52.362;10.012;2023-08-01T06:23:49;21.00;89.40
5520;DHT22;2782;52.362;10.012;2023-08-01T06:24:49;21.00;89.50
5520;DHT22;2782;52.362;10.012;2023-08-01T06:25:51;21.00;89.40
5520;DHT22;2782;52.362;10.012;2023-08-01T06:26:51;21.00;89.40
5520;DHT22;2782;52.362;10.012;2023-08-01T06:27:54;21.00;89.40
5520;DHT22;2782;52.362;10.012;2023-08-01T06:28:55;21.00;89.40
5520;DHT22;2782;52.362;10.012;2023-08-01T06:29:57;21.00;89.40
5520;DHT22;2782;52.362;10.012;2023-08-01T06:30:57;21.00;89.30
5520;DHT22;2782;52.362;10.012;2023-08-01T06:31:58;21.00;89.40
5520;DHT22;2782;52.362;10.012;2023-08-01T06:33:00;21.00;89.40
5520;DHT22;2782;52.362;10.012;2023-08-01T06:34:00;21.00;89.30